sensor_id;sensor_type;location;lat;lon;timestamp;pressure;altitude;pressure_sealevel;temperature;humidity
52441;BME280;39611;46.062;8.950;2022-12-18T00:01:17;97452.22;;;1.82;100.00
52441;BME280;39611;46.062;8.950;2022-12-18T00:03:44;97455.88;;;1.88;100.00
52441;BME280;39611;46.062;8.950;2022-12-18T00:06:12;97452.69;;;1.99;100.00
52441;BME280;39611;46.062;8.950;2022-12-18T00:08:40;97444.63;;;1.87;100.00
52441;BME280;39611;46.062;8.950;2022-12-18T00:11:10;97464.16;;;1.98;100.00
52441;BME280;39611;46.062;8.950;2022-12-18T00:13:37;97473.91;;;1.83;100.00
52441;BME280;39611;46.062;8.950;2022-12-18T00:16:06;97473.50;;;1.79;100.00
52441;BME280;39611;46.062;8.950;2022-12-18T00:18:35;97480.16;;;1.88;100.00
52441;BME280;39611;46.062;8.950;2022-12-18T00:21:05;97485.47;;;1.73;100.00
52441;BME280;39611;46.062;8.950;2022-12-18T00:23:33;97482.22;;;1.65;100.00
52441;BME280;39611;46.062;8.950;2022-12-18T00:26:02;97485.91;;;1.77;100.00
52441;BME280;39611;46.062;8.950;2022-12-18T00:28:29;97493.34;;;1.80;100.00
52441;BME280;39611;46.062;8.950;2022-12-18T00:31:03;97489.50;;;1.76;100.00
52441;BME280;39611;46.062;8.950;2022-12-18T00:33:30;97495.56;;;1.83;100.00
52441;BME280;39611;46.062;8.950;2022-12-18T00:36:08;97490.66;;;2.02;100.00
52441;BME280;39611;46.062;8.950;2022-12-18T00:38:35;97491.81;;;1.92;100.00
52441;BME280;39611;46.062;8.950;2022-12-18T00:41:02;97490.19;;;1.85;100.00
52441;BME280;39611;46.062;8.950;2022-12-18T00:43:29;97493.75;;;1.84;100.00
52441;BME280;39611;46.062;8.950;2022-12-18T00:45:55;97494.38;;;1.79;100.00
52441;BME280;39611;46.062;8.950;2022-12-18T00:48:22;97502.31;;;1.71;100.00
52441;BME280;39611;46.062;8.950;2022-12-18T00:50:49;97510.53;;;1.68;100.00
52441;BME280;39611;46.062;8.950;2022-12-18T00:53:16;97503.16;;;1.71;100.00
52441;BME280;39611;46.062;8.950;2022-12-18T00:55:43;97509.00;;;1.80;100.00
52441;BME280;39611;46.062;8.950;2022-12-18T00:58:11;97521.63;;;1.77;100.00
52441;BME280;39611;46.062;8.950;2022-12-18T01:00:38;97519.28;;;1.88;100.00
52441;BME280;39611;46.062;8.950;2022-12-18T01:03:05;97517.72;;;1.66;100.00
52441;BME280;39611;46.062;8.950;2022-12-18T01:05:32;97526.84;;;1.48;100.00
52441;BME280;39611;46.062;8.950;2022-12-18T01:07:59;97519.78;;;1.70;100.00
52441;BME280;39611;46.062;8.950;2022-12-18T01:10:26;97514.41;;;1.79;100.00
52441;BME280;39611;46.062;8.950;2022-12-18T01:12:52;97518.13;;;1.63;100.00
52441;BME280;39611;46.062;8.950;2022-12-18T01:15:19;97524.91;;;1.85;100.00
52441;BME280;39611;46.062;8.950;2022-12-18T01:17:46;97528.84;;;1.46;100.00
52441;BME280;39611;46.062;8.950;2022-12-18T01:20:13;97533.38;;;1.66;100.00
52441;BME280;39611;46.062;8.950;2022-12-18T01:22:40;97530.56;;;1.39;100.00
52441;BME280;39611;46.062;8.950;2022-12-18T01:25:07;97533.69;;;1.28;100.00
52441;BME280;39611;46.062;8.950;2022-12-18T01:27:34;97543.47;;;1.47;100.00
52441;BME280;39611;46.062;8.950;2022-12-18T01:30:00;97543.09;;;1.50;100.00
52441;BME280;39611;46.062;8.950;2022-12-18T01:32:30;97548.75;;;1.54;100.00
52441;BME280;39611;46.062;8.950;2022-12-18T01:34:57;97552.41;;;1.60;100.00
52441;BME280;39611;46.062;8.950;2022-12-18T01:37:23;97553.34;;;1.80;100.00
52441;BME280;39611;46.062;8.950;2022-12-18T01:39:52;97564.28;;;1.41;100.00
52441;BME280;39611;46.062;8.950;2022-12-18T01:42:21;97557.13;;;1.49;100.00
52441;BME280;39611;46.062;8.950;2022-12-18T01:45:21;97558.03;;;1.63;100.00
52441;BME280;39611;46.062;8.950;2022-12-18T01:50:35;97572.66;;;1.36;100.00
52441;BME280;39611;46.062;8.950;2022-12-18T01:53:18;97575.41;;;1.28;100.00
52441;BME280;39611;46.062;8.950;2022-12-18T01:55:56;97575.72;;;1.68;100.00
52441;BME280;39611;46.062;8.950;2022-12-18T02:01:02;97571.97;;;1.49;100.00
52441;BME280;39611;46.062;8.950;2022-12-18T02:03:29;97569.63;;;1.54;100.00
52441;BME280;39611;46.062;8.950;2022-12-18T02:08:40;97557.53;;;1.74;99.79
52441;BME280;39611;46.062;8.950;2022-12-18T02:14:17;97549.06;;;1.44;100.00
52441;BME280;39611;46.062;8.950;2022-12-18T02:16:56;97558.53;;;1.45;100.00
52441;BME280;39611;46.062;8.950;2022-12-18T02:22:26;97576.41;;;1.48;100.00
52441;BME280;39611;46.062;8.950;2022-12-18T02:27:45;97561.19;;;1.80;98.74
52441;BME280;39611;46.062;8.950;2022-12-18T02:30:13;97572.50;;;1.66;100.00
52441;BME280;39611;46.062;8.950;2022-12-18T02:32:44;97568.44;;;1.57;100.00
52441;BME280;39611;46.062;8.950;2022-12-18T02:35:15;97570.09;;;1.64;99.63
52441;BME280;39611;46.062;8.950;2022-12-18T02:37:44;97581.53;;;1.91;98.17
52441;BME280;39611;46.062;8.950;2022-12-18T02:40:14;97590.50;;;1.82;100.00
52441;BME280;39611;46.062;8.950;2022-12-18T02:42:41;97578.47;;;1.60;100.00
52441;BME280;39611;46.062;8.950;2022-12-18T02:45:07;97571.19;;;1.48;100.00
52441;BME280;39611;46.062;8.950;2022-12-18T02:47:39;97582.59;;;1.69;100.00
52441;BME280;39611;46.062;8.950;2022-12-18T02:50:35;97588.03;;;1.52;100.00
52441;BME280;39611;46.062;8.950;2022-12-18T02:53:10;97602.78;;;1.39;100.00
52441;BME280;39611;46.062;8.950;2022-12-18T03:01:11;97610.28;;;1.48;100.00
52441;BME280;39611;46.062;8.950;2022-12-18T03:03:51;97603.69;;;1.74;99.43
52441;BME280;39611;46.062;8.950;2022-12-18T03:06:40;97608.78;;;1.61;100.00
52441;BME280;39611;46.062;8.950;2022-12-18T03:09:11;97610.16;;;1.35;100.00
52441;BME280;39611;46.062;8.950;2022-12-18T03:11:42;97608.16;;;1.16;100.00
52441;BME280;39611;46.062;8.950;2022-12-18T03:14:32;97613.16;;;1.53;99.14
52441;BME280;39611;46.062;8.950;2022-12-18T03:17:02;97609.34;;;1.56;99.23
52441;BME280;39611;46.062;8.950;2022-12-18T03:19:32;97608.59;;;1.62;98.55
52441;BME280;39611;46.062;8.950;2022-12-18T03:22:02;97605.47;;;1.45;99.42
52441;BME280;39611;46.062;8.950;2022-12-18T03:24:31;97616.91;;;1.29;100.00
52441;BME280;39611;46.062;8.950;2022-12-18T03:27:01;97616.22;;;1.21;100.00
52441;BME280;39611;46.062;8.950;2022-12-18T03:29:35;97605.25;;;1.25;100.00
52441;BME280;39611;46.062;8.950;2022-12-18T03:32:12;97609.25;;;1.43;99.48
52441;BME280;39611;46.062;8.950;2022-12-18T03:34:42;97622.59;;;1.33;99.99
52441;BME280;39611;46.062;8.950;2022-12-18T03:37:12;97619.84;;;1.41;99.69
52441;BME280;39611;46.062;8.950;2022-12-18T03:39:38;97620.09;;;1.46;98.73
52441;BME280;39611;46.062;8.950;2022-12-18T03:42:10;97617.34;;;1.55;98.23
52441;BME280;39611;46.062;8.950;2022-12-18T03:45:11;97620.34;;;1.51;97.39
52441;BME280;39611;46.062;8.950;2022-12-18T03:50:22;97620.34;;;1.30;98.63
52441;BME280;39611;46.062;8.950;2022-12-18T03:52:57;97633.81;;;1.34;98.98
52441;BME280;39611;46.062;8.950;2022-12-18T03:55:28;97630.88;;;1.22;99.49
52441;BME280;39611;46.062;8.950;2022-12-18T03:57:57;97636.00;;;1.30;100.00
52441;BME280;39611;46.062;8.950;2022-12-18T04:00:25;97637.00;;;1.14;100.00
52441;BME280;39611;46.062;8.950;2022-12-18T04:02:54;97640.94;;;1.25;100.00
52441;BME280;39611;46.062;8.950;2022-12-18T04:05:22;97632.75;;;1.28;100.00
52441;BME280;39611;46.062;8.950;2022-12-18T04:07:51;97636.75;;;1.45;99.20
52441;BME280;39611;46.062;8.950;2022-12-18T04:10:20;97642.44;;;1.34;100.00
52441;BME280;39611;46.062;8.950;2022-12-18T04:12:46;97643.22;;;1.35;99.91
52441;BME280;39611;46.062;8.950;2022-12-18T04:15:13;97643.19;;;1.28;100.00
52441;BME280;39611;46.062;8.950;2022-12-18T04:17:49;97655.00;;;1.45;99.70
52441;BME280;39611;46.062;8.950;2022-12-18T04:20:16;97664.03;;;1.28;99.83
52441;BME280;39611;46.062;8.950;2022-12-18T04:22:43;97664.81;;;1.43;98.83
52441;BME280;39611;46.062;8.950;2022-12-18T04:25:09;97668.25;;;1.50;98.69
52441;BME280;39611;46.062;8.950;2022-12-18T04:27:37;97661.88;;;1.53;98.95
52441;BME280;39611;46.062;8.950;2022-12-18T04:30:04;97666.53;;;1.58;98.89
52441;BME280;39611;46.062;8.950;2022-12-18T04:32:33;97667.41;;;1.43;100.00
52441;BME280;39611;46.062;8.950;2022-12-18T04:34:59;97665.44;;;1.45;99.85
52441;BME280;39611;46.062;8.950;2022-12-18T04:37:26;97659.63;;;1.28;100.00
52441;BME280;39611;46.062;8.950;2022-12-18T04:39:52;97667.28;;;1.30;100.00
52441;BME280;39611;46.062;8.950;2022-12-18T04:42:19;97680.91;;;1.32;100.00
52441;BME280;39611;46.062;8.950;2022-12-18T04:44:45;97684.88;;;1.28;100.00
52441;BME280;39611;46.062;8.950;2022-12-18T04:47:12;97691.84;;;1.42;99.90
52441;BME280;39611;46.062;8.950;2022-12-18T04:49:38;97689.25;;;1.42;98.87
52441;BME280;39611;46.062;8.950;2022-12-18T04:52:05;97684.38;;;1.54;97.67
52441;BME280;39611;46.062;8.950;2022-12-18T04:54:33;97697.09;;;1.64;97.87
52441;BME280;39611;46.062;8.950;2022-12-18T04:57:00;97699.56;;;1.50;99.51
52441;BME280;39611;46.062;8.950;2022-12-18T04:59:26;97702.19;;;1.72;98.33
52441;BME280;39611;46.062;8.950;2022-12-18T05:01:53;97690.38;;;1.55;99.19
52441;BME280;39611;46.062;8.950;2022-12-18T05:04:19;97700.00;;;1.54;99.82
52441;BME280;39611;46.062;8.950;2022-12-18T05:06:46;97702.66;;;1.39;100.00
52441;BME280;39611;46.062;8.950;2022-12-18T05:09:13;97708.25;;;1.36;100.00
52441;BME280;39611;46.062;8.950;2022-12-18T05:11:39;97705.47;;;1.38;99.19
52441;BME280;39611;46.062;8.950;2022-12-18T05:14:06;97714.78;;;1.47;97.58
52441;BME280;39611;46.062;8.950;2022-12-18T05:16:33;97714.09;;;1.60;95.49
52441;BME280;39611;46.062;8.950;2022-12-18T05:19:00;97707.66;;;1.77;95.15
52441;BME280;39611;46.062;8.950;2022-12-18T05:21:26;97716.59;;;1.68;97.29
52441;BME280;39611;46.062;8.950;2022-12-18T05:23:53;97722.81;;;1.67;97.39
52441;BME280;39611;46.062;8.950;2022-12-18T05:26:19;97716.97;;;1.65;97.84
52441;BME280;39611;46.062;8.950;2022-12-18T05:28:46;97731.44;;;1.67;97.37
52441;BME280;39611;46.062;8.950;2022-12-18T05:31:13;97726.50;;;1.58;97.75
52441;BME280;39611;46.062;8.950;2022-12-18T05:33:40;97734.22;;;1.66;96.79
52441;BME280;39611;46.062;8.950;2022-12-18T05:36:08;97733.41;;;1.65;97.31
52441;BME280;39611;46.062;8.950;2022-12-18T05:38:37;97741.50;;;1.70;98.45
52441;BME280;39611;46.062;8.950;2022-12-18T05:41:04;97740.69;;;1.48;98.71
52441;BME280;39611;46.062;8.950;2022-12-18T05:43:34;97746.91;;;1.33;99.08
52441;BME280;39611;46.062;8.950;2022-12-18T05:46:06;97740.78;;;1.40;98.64
52441;BME280;39611;46.062;8.950;2022-12-18T05:48:33;97752.44;;;1.59;97.59
52441;BME280;39611;46.062;8.950;2022-12-18T05:51:07;97752.22;;;1.61;96.73
52441;BME280;39611;46.062;8.950;2022-12-18T05:53:35;97742.69;;;1.68;97.04
52441;BME280;39611;46.062;8.950;2022-12-18T05:56:05;97751.97;;;1.56;97.54
52441;BME280;39611;46.062;8.950;2022-12-18T05:58:32;97755.84;;;1.60;97.69
52441;BME280;39611;46.062;8.950;2022-12-18T06:01:09;97749.97;;;1.58;97.19
52441;BME280;39611;46.062;8.950;2022-12-18T06:03:36;97748.41;;;1.42;98.11
52441;BME280;39611;46.062;8.950;2022-12-18T06:06:03;97754.81;;;1.24;98.73
52441;BME280;39611;46.062;8.950;2022-12-18T06:08:49;97764.34;;;1.32;98.20
52441;BME280;39611;46.062;8.950;2022-12-18T06:11:19;97762.34;;;1.34;97.48
52441;BME280;39611;46.062;8.950;2022-12-18T06:13:49;97763.81;;;1.22;98.61
52441;BME280;39611;46.062;8.950;2022-12-18T06:16:23;97768.75;;;1.31;97.84
52441;BME280;39611;46.062;8.950;2022-12-18T06:18:49;97772.41;;;1.37;97.39
52441;BME280;39611;46.062;8.950;2022-12-18T06:21:16;97778.47;;;1.38;97.99
52441;BME280;39611;46.062;8.950;2022-12-18T06:23:42;97777.63;;;1.37;98.10
52441;BME280;39611;46.062;8.950;2022-12-18T06:26:11;97788.00;;;1.01;98.93
52441;BME280;39611;46.062;8.950;2022-12-18T06:28:38;97785.38;;;1.01;99.30
52441;BME280;39611;46.062;8.950;2022-12-18T06:31:05;97788.91;;;1.23;96.96
52441;BME280;39611;46.062;8.950;2022-12-18T06:33:33;97793.09;;;1.39;96.74
52441;BME280;39611;46.062;8.950;2022-12-18T06:36:06;97794.75;;;1.25;97.26
52441;BME280;39611;46.062;8.950;2022-12-18T06:38:33;97807.34;;;1.06;97.84
52441;BME280;39611;46.062;8.950;2022-12-18T06:41:05;97803.53;;;1.24;97.26
52441;BME280;39611;46.062;8.950;2022-12-18T06:43:32;97798.69;;;1.21;97.69
52441;BME280;39611;46.062;8.950;2022-12-18T06:45:59;97805.34;;;0.94;98.34
52441;BME280;39611;46.062;8.950;2022-12-18T06:48:26;97810.09;;;1.05;98.29
52441;BME280;39611;46.062;8.950;2022-12-18T06:50:53;97823.31;;;1.03;98.36
52441;BME280;39611;46.062;8.950;2022-12-18T06:53:20;97816.38;;;0.96;98.77
52441;BME280;39611;46.062;8.950;2022-12-18T06:55:46;97816.47;;;1.02;98.12
52441;BME280;39611;46.062;8.950;2022-12-18T06:58:13;97823.47;;;1.17;96.81
52441;BME280;39611;46.062;8.950;2022-12-18T07:00:39;97818.63;;;1.14;96.67
52441;BME280;39611;46.062;8.950;2022-12-18T07:03:06;97828.25;;;1.13;97.40
52441;BME280;39611;46.062;8.950;2022-12-18T07:05:33;97830.56;;;0.93;97.58
52441;BME280;39611;46.062;8.950;2022-12-18T07:08:00;97836.41;;;0.95;97.31
52441;BME280;39611;46.062;8.950;2022-12-18T07:10:26;97844.16;;;1.03;96.74
52441;BME280;39611;46.062;8.950;2022-12-18T07:12:53;97844.88;;;0.97;96.89
52441;BME280;39611;46.062;8.950;2022-12-18T07:15:20;97851.91;;;1.12;95.64
52441;BME280;39611;46.062;8.950;2022-12-18T07:17:46;97857.72;;;1.14;95.95
52441;BME280;39611;46.062;8.950;2022-12-18T07:20:13;97863.31;;;1.11;96.50
52441;BME280;39611;46.062;8.950;2022-12-18T07:22:39;97865.47;;;1.07;97.16
52441;BME280;39611;46.062;8.950;2022-12-18T07:25:07;97866.72;;;0.96;97.63
52441;BME280;39611;46.062;8.950;2022-12-18T07:27:33;97881.78;;;1.01;96.43
52441;BME280;39611;46.062;8.950;2022-12-18T07:30:00;97884.78;;;1.13;96.46
52441;BME280;39611;46.062;8.950;2022-12-18T07:32:26;97888.91;;;1.22;95.12
52441;BME280;39611;46.062;8.950;2022-12-18T07:34:53;97886.31;;;1.22;94.51
52441;BME280;39611;46.062;8.950;2022-12-18T07:37:20;97891.47;;;1.30;94.81
52441;BME280;39611;46.062;8.950;2022-12-18T07:39:46;97899.84;;;1.40;95.14
52441;BME280;39611;46.062;8.950;2022-12-18T07:42:15;97900.22;;;1.14;96.50
52441;BME280;39611;46.062;8.950;2022-12-18T07:45:00;97900.63;;;1.26;95.51
52441;BME280;39611;46.062;8.950;2022-12-18T07:47:28;97911.59;;;1.36;94.16
52441;BME280;39611;46.062;8.950;2022-12-18T07:49:56;97918.78;;;1.34;93.76
52441;BME280;39611;46.062;8.950;2022-12-18T07:52:22;97917.81;;;1.35;93.27
52441;BME280;39611;46.062;8.950;2022-12-18T07:54:51;97915.53;;;1.32;92.25
52441;BME280;39611;46.062;8.950;2022-12-18T07:57:18;97918.97;;;1.47;90.54
52441;BME280;39611;46.062;8.950;2022-12-18T08:00:05;97921.03;;;1.52;89.53
52441;BME280;39611;46.062;8.950;2022-12-18T08:02:32;97926.81;;;1.62;90.64
52441;BME280;39611;46.062;8.950;2022-12-18T08:04:59;97923.56;;;1.30;93.28
52441;BME280;39611;46.062;8.950;2022-12-18T08:07:26;97921.84;;;1.23;94.06
52441;BME280;39611;46.062;8.950;2022-12-18T08:09:52;97941.53;;;1.25;94.17
52441;BME280;39611;46.062;8.950;2022-12-18T08:12:19;97937.13;;;1.26;93.69
52441;BME280;39611;46.062;8.950;2022-12-18T08:14:46;97933.53;;;1.42;93.76
52441;BME280;39611;46.062;8.950;2022-12-18T08:17:12;97936.50;;;1.39;93.04
52441;BME280;39611;46.062;8.950;2022-12-18T08:19:39;97945.66;;;1.35;93.61
52441;BME280;39611;46.062;8.950;2022-12-18T08:22:05;97941.34;;;1.27;93.48
52441;BME280;39611;46.062;8.950;2022-12-18T08:24:32;97948.81;;;1.45;92.92
52441;BME280;39611;46.062;8.950;2022-12-18T08:26:58;97942.81;;;1.44;93.27
52441;BME280;39611;46.062;8.950;2022-12-18T08:29:45;97945.53;;;1.51;91.25
52441;BME280;39611;46.062;8.950;2022-12-18T08:32:11;97955.34;;;1.64;92.07
52441;BME280;39611;46.062;8.950;2022-12-18T08:34:38;97959.53;;;1.50;94.48
52441;BME280;39611;46.062;8.950;2022-12-18T08:37:05;97947.75;;;1.39;94.94
52441;BME280;39611;46.062;8.950;2022-12-18T08:39:31;97952.78;;;1.56;93.49
52441;BME280;39611;46.062;8.950;2022-12-18T08:41:58;97951.53;;;1.51;94.64
52441;BME280;39611;46.062;8.950;2022-12-18T08:44:43;97954.94;;;1.37;96.37
52441;BME280;39611;46.062;8.950;2022-12-18T08:47:09;97951.16;;;1.40;95.87
52441;BME280;39611;46.062;8.950;2022-12-18T08:49:36;97953.25;;;1.59;93.46
52441;BME280;39611;46.062;8.950;2022-12-18T08:52:03;97954.16;;;1.66;93.99
52441;BME280;39611;46.062;8.950;2022-12-18T08:54:29;97969.88;;;1.73;94.05
52441;BME280;39611;46.062;8.950;2022-12-18T08:56:56;97965.94;;;1.77;94.34
52441;BME280;39611;46.062;8.950;2022-12-18T08:59:23;97973.22;;;1.67;93.69
52441;BME280;39611;46.062;8.950;2022-12-18T09:01:50;97963.06;;;1.72;92.51
52441;BME280;39611;46.062;8.950;2022-12-18T09:04:17;97966.03;;;1.84;92.99
52441;BME280;39611;46.062;8.950;2022-12-18T09:06:43;97983.13;;;1.86;93.78
52441;BME280;39611;46.062;8.950;2022-12-18T09:09:10;97979.81;;;1.92;92.28
52441;BME280;39611;46.062;8.950;2022-12-18T09:11:37;97989.50;;;1.99;92.28
52441;BME280;39611;46.062;8.950;2022-12-18T09:14:04;97980.78;;;2.06;93.18
52441;BME280;39611;46.062;8.950;2022-12-18T09:16:32;97972.56;;;1.94;95.13
52441;BME280;39611;46.062;8.950;2022-12-18T09:18:59;97972.16;;;2.06;94.66
52441;BME280;39611;46.062;8.950;2022-12-18T09:21:31;97972.13;;;2.21;92.99
52441;BME280;39611;46.062;8.950;2022-12-18T09:24:03;97969.09;;;2.38;91.38
52441;BME280;39611;46.062;8.950;2022-12-18T09:26:34;97971.56;;;2.25;92.35
52441;BME280;39611;46.062;8.950;2022-12-18T09:29:02;97986.91;;;2.13;93.61
52441;BME280;39611;46.062;8.950;2022-12-18T09:31:29;97984.19;;;2.22;91.20
52441;BME280;39611;46.062;8.950;2022-12-18T09:33:55;97982.63;;;2.27;91.54
52441;BME280;39611;46.062;8.950;2022-12-18T09:36:23;97977.03;;;2.30;92.02
52441;BME280;39611;46.062;8.950;2022-12-18T09:38:49;97976.94;;;2.38;91.24
52441;BME280;39611;46.062;8.950;2022-12-18T09:44:18;97982.06;;;2.47;90.94
52441;BME280;39611;46.062;8.950;2022-12-18T09:46:58;97978.03;;;2.44;91.65
52441;BME280;39611;46.062;8.950;2022-12-18T09:49:29;97968.94;;;2.61;92.11
52441;BME280;39611;46.062;8.950;2022-12-18T09:52:05;97973.38;;;2.61;92.65
52441;BME280;39611;46.062;8.950;2022-12-18T09:54:39;97969.97;;;2.60;92.82
52441;BME280;39611;46.062;8.950;2022-12-18T09:57:12;97974.38;;;2.60;92.43
52441;BME280;39611;46.062;8.950;2022-12-18T09:59:41;97969.78;;;2.62;91.53
52441;BME280;39611;46.062;8.950;2022-12-18T10:02:23;97970.47;;;2.71;91.40
52441;BME280;39611;46.062;8.950;2022-12-18T10:05:14;97961.63;;;2.72;90.68
52441;BME280;39611;46.062;8.950;2022-12-18T10:08:05;97975.50;;;2.72;89.20
52441;BME280;39611;46.062;8.950;2022-12-18T10:10:47;97965.28;;;2.77;90.36
52441;BME280;39611;46.062;8.950;2022-12-18T10:13:23;97965.63;;;2.68;90.46
52441;BME280;39611;46.062;8.950;2022-12-18T10:16:13;97976.00;;;2.82;89.63
52441;BME280;39611;46.062;8.950;2022-12-18T10:24:36;97956.41;;;2.93;88.42
52441;BME280;39611;46.062;8.950;2022-12-18T10:27:17;97957.25;;;3.00;85.75
52441;BME280;39611;46.062;8.950;2022-12-18T10:29:45;97952.03;;;3.00;83.62
52441;BME280;39611;46.062;8.950;2022-12-18T10:32:18;97941.41;;;3.02;85.01
52441;BME280;39611;46.062;8.950;2022-12-18T10:34:49;97951.22;;;3.00;83.84
52441;BME280;39611;46.062;8.950;2022-12-18T10:37:27;97955.00;;;3.19;82.35
52441;BME280;39611;46.062;8.950;2022-12-18T10:40:14;97948.66;;;3.28;81.96
52441;BME280;39611;46.062;8.950;2022-12-18T10:42:55;97963.38;;;3.36;82.91
52441;BME280;39611;46.062;8.950;2022-12-18T10:45:39;97958.72;;;3.31;83.74
52441;BME280;39611;46.062;8.950;2022-12-18T10:48:18;97964.19;;;3.36;81.78
52441;BME280;39611;46.062;8.950;2022-12-18T10:50:48;97970.69;;;3.47;81.91
52441;BME280;39611;46.062;8.950;2022-12-18T10:53:36;97959.06;;;3.49;83.57
52441;BME280;39611;46.062;8.950;2022-12-18T10:56:04;97955.22;;;3.45;84.69
52441;BME280;39611;46.062;8.950;2022-12-18T10:58:37;97943.75;;;3.46;82.23
52441;BME280;39611;46.062;8.950;2022-12-18T11:01:14;97960.94;;;3.56;82.03
52441;BME280;39611;46.062;8.950;2022-12-18T11:04:00;97961.09;;;3.54;82.21
52441;BME280;39611;46.062;8.950;2022-12-18T11:06:30;97951.25;;;3.56;82.02
52441;BME280;39611;46.062;8.950;2022-12-18T11:09:27;97961.19;;;3.67;82.87
52441;BME280;39611;46.062;8.950;2022-12-18T11:11:56;97960.19;;;3.68;82.33
52441;BME280;39611;46.062;8.950;2022-12-18T11:14:25;97962.66;;;3.77;80.94
52441;BME280;39611;46.062;8.950;2022-12-18T11:16:54;97965.88;;;3.79;81.41
52441;BME280;39611;46.062;8.950;2022-12-18T11:19:41;97975.59;;;3.85;82.07
52441;BME280;39611;46.062;8.950;2022-12-18T11:22:24;97979.00;;;3.85;81.74
52441;BME280;39611;46.062;8.950;2022-12-18T11:28:04;97969.19;;;3.94;78.95
52441;BME280;39611;46.062;8.950;2022-12-18T11:30:36;97961.31;;;3.94;78.44
52441;BME280;39611;46.062;8.950;2022-12-18T11:33:10;97964.38;;;3.98;75.84
52441;BME280;39611;46.062;8.950;2022-12-18T11:36:30;97956.75;;;4.03;76.42
52441;BME280;39611;46.062;8.950;2022-12-18T11:39:09;97955.56;;;4.05;75.54
52441;BME280;39611;46.062;8.950;2022-12-18T11:41:48;97958.59;;;4.09;74.14
52441;BME280;39611;46.062;8.950;2022-12-18T11:48:08;97965.25;;;4.11;73.38
52441;BME280;39611;46.062;8.950;2022-12-18T11:50:57;97958.00;;;4.20;72.23
52441;BME280;39611;46.062;8.950;2022-12-18T11:53:26;97945.94;;;4.19;72.79
52441;BME280;39611;46.062;8.950;2022-12-18T11:58:44;97941.31;;;4.21;73.04
52441;BME280;39611;46.062;8.950;2022-12-18T12:06:59;97925.78;;;4.13;74.09
52441;BME280;39611;46.062;8.950;2022-12-18T12:15:54;97921.41;;;4.33;72.43
52441;BME280;39611;46.062;8.950;2022-12-18T12:18:41;97921.41;;;4.40;72.82
52441;BME280;39611;46.062;8.950;2022-12-18T12:24:22;97919.00;;;4.45;70.98
52441;BME280;39611;46.062;8.950;2022-12-18T12:27:20;97915.78;;;4.36;70.84
52441;BME280;39611;46.062;8.950;2022-12-18T12:30:03;97907.50;;;4.33;70.70
52441;BME280;39611;46.062;8.950;2022-12-18T12:35:25;97916.03;;;4.55;72.27
52441;BME280;39611;46.062;8.950;2022-12-18T12:38:06;97915.81;;;4.56;73.01
52441;BME280;39611;46.062;8.950;2022-12-18T12:40:39;97911.75;;;4.54;73.86
52441;BME280;39611;46.062;8.950;2022-12-18T12:43:25;97909.16;;;4.60;73.25
52441;BME280;39611;46.062;8.950;2022-12-18T12:46:07;97913.41;;;4.68;73.38
52441;BME280;39611;46.062;8.950;2022-12-18T12:48:46;97897.06;;;4.66;73.06
52441;BME280;39611;46.062;8.950;2022-12-18T12:51:28;97899.50;;;4.68;72.86
52441;BME280;39611;46.062;8.950;2022-12-18T12:54:00;97889.63;;;4.63;73.88
52441;BME280;39611;46.062;8.950;2022-12-18T12:57:10;97891.66;;;4.68;74.52
52441;BME280;39611;46.062;8.950;2022-12-18T13:05:35;97898.91;;;4.79;71.04
52441;BME280;39611;46.062;8.950;2022-12-18T13:08:29;97887.44;;;4.80;72.12
52441;BME280;39611;46.062;8.950;2022-12-18T13:11:34;97894.09;;;4.82;73.09
52441;BME280;39611;46.062;8.950;2022-12-18T13:14:45;97898.69;;;4.87;72.37
52441;BME280;39611;46.062;8.950;2022-12-18T13:22:43;97885.19;;;4.84;71.87
52441;BME280;39611;46.062;8.950;2022-12-18T13:25:33;97878.16;;;4.91;71.54
52441;BME280;39611;46.062;8.950;2022-12-18T13:28:02;97871.28;;;4.96;72.51
52441;BME280;39611;46.062;8.950;2022-12-18T13:36:01;97865.44;;;4.94;71.78
52441;BME280;39611;46.062;8.950;2022-12-18T13:41:22;97869.47;;;4.97;70.14
52441;BME280;39611;46.062;8.950;2022-12-18T13:44:30;97874.13;;;5.01;70.46
52441;BME280;39611;46.062;8.950;2022-12-18T13:47:26;97876.13;;;4.99;70.03
52441;BME280;39611;46.062;8.950;2022-12-18T13:50:35;97884.19;;;4.91;71.74
52441;BME280;39611;46.062;8.950;2022-12-18T13:53:31;97882.97;;;4.87;70.95
52441;BME280;39611;46.062;8.950;2022-12-18T13:56:02;97874.69;;;4.90;71.31
52441;BME280;39611;46.062;8.950;2022-12-18T13:58:33;97871.28;;;4.83;72.19
52441;BME280;39611;46.062;8.950;2022-12-18T14:01:00;97867.47;;;4.86;71.35
52441;BME280;39611;46.062;8.950;2022-12-18T14:03:32;97874.69;;;4.90;72.68
52441;BME280;39611;46.062;8.950;2022-12-18T14:06:16;97883.19;;;4.92;72.00
52441;BME280;39611;46.062;8.950;2022-12-18T14:09:26;97890.06;;;4.93;71.65
52441;BME280;39611;46.062;8.950;2022-12-18T14:12:46;97877.16;;;4.85;70.68
52441;BME280;39611;46.062;8.950;2022-12-18T14:15:41;97877.53;;;4.82;72.67
52441;BME280;39611;46.062;8.950;2022-12-18T14:21:40;97887.44;;;4.80;71.18
52441;BME280;39611;46.062;8.950;2022-12-18T14:24:30;97890.44;;;4.77;71.63
52441;BME280;39611;46.062;8.950;2022-12-18T14:27:24;97897.91;;;4.73;73.58
52441;BME280;39611;46.062;8.950;2022-12-18T14:30:00;97904.16;;;4.79;74.57
52441;BME280;39611;46.062;8.950;2022-12-18T14:36:30;97892.84;;;4.65;72.94
52441;BME280;39611;46.062;8.950;2022-12-18T14:39:54;97907.78;;;4.71;72.88
52441;BME280;39611;46.062;8.950;2022-12-18T14:49:35;97909.56;;;4.57;77.10
52441;BME280;39611;46.062;8.950;2022-12-18T14:55:58;97921.63;;;4.45;79.87
52441;BME280;39611;46.062;8.950;2022-12-18T14:59:05;97915.19;;;4.41;79.12
52441;BME280;39611;46.062;8.950;2022-12-18T15:02:29;97933.53;;;4.41;80.91
52441;BME280;39611;46.062;8.950;2022-12-18T15:05:41;97919.78;;;4.26;80.45
52441;BME280;39611;46.062;8.950;2022-12-18T15:11:56;97939.03;;;4.05;81.64
52441;BME280;39611;46.062;8.950;2022-12-18T15:17:59;97935.00;;;4.02;81.94
52441;BME280;39611;46.062;8.950;2022-12-18T15:20:31;97937.75;;;3.94;83.32
52441;BME280;39611;46.062;8.950;2022-12-18T15:26:12;97942.53;;;3.77;83.63
52441;BME280;39611;46.062;8.950;2022-12-18T15:29:19;97949.97;;;3.74;84.05